sensor_id;sensor_type;location;lat;lon;timestamp;pressure;altitude;pressure_sealevel;temperature;humidity
19811;BME280;10065;49.632;8.346;2022-10-17T00:00:18;101008.81;;;17.37;100.00
19811;BME280;10065;49.632;8.346;2022-10-17T00:02:46;101011.66;;;17.35;100.00
19811;BME280;10065;49.632;8.346;2022-10-17T00:05:13;101018.03;;;17.34;100.00
19811;BME280;10065;49.632;8.346;2022-10-17T00:07:41;101017.19;;;17.34;100.00
19811;BME280;10065;49.632;8.346;2022-10-17T00:10:09;101022.44;;;17.27;100.00
19811;BME280;10065;49.632;8.346;2022-10-17T00:12:36;101025.28;;;17.25;100.00
19811;BME280;10065;49.632;8.346;2022-10-17T00:15:06;101025.66;;;17.22;100.00
19811;BME280;10065;49.632;8.346;2022-10-17T00:17:35;101026.00;;;17.19;100.00
19811;BME280;10065;49.632;8.346;2022-10-17T00:20:04;101022.66;;;17.17;100.00
19811;BME280;10065;49.632;8.346;2022-10-17T00:22:32;101020.53;;;17.13;100.00
19811;BME280;10065;49.632;8.346;2022-10-17T00:25:05;101027.25;;;17.09;100.00
19811;BME280;10065;49.632;8.346;2022-10-17T00:27:34;101020.88;;;17.10;100.00
19811;BME280;10065;49.632;8.346;2022-10-17T00:30:02;101023.56;;;17.10;100.00
19811;BME280;10065;49.632;8.346;2022-10-17T00:32:30;101019.88;;;17.11;100.00
19811;BME280;10065;49.632;8.346;2022-10-17T00:34:59;101027.25;;;17.09;100.00
19811;BME280;10065;49.632;8.346;2022-10-17T00:37:27;101028.63;;;17.05;100.00
19811;BME280;10065;49.632;8.346;2022-10-17T00:39:56;101030.31;;;17.06;100.00
19811;BME280;10065;49.632;8.346;2022-10-17T00:42:24;101034.00;;;17.05;100.00
19811;BME280;10065;49.632;8.346;2022-10-17T00:45:15;101036.84;;;17.03;100.00
19811;BME280;10065;49.632;8.346;2022-10-17T00:47:45;101035.34;;;17.01;100.00
19811;BME280;10065;49.632;8.346;2022-10-17T00:50:16;101029.81;;;17.02;100.00
19811;BME280;10065;49.632;8.346;2022-10-17T00:52:45;101037.66;;;17.04;100.00
19811;BME280;10065;49.632;8.346;2022-10-17T00:55:17;101039.34;;;17.05;100.00
19811;BME280;10065;49.632;8.346;2022-10-17T00:57:47;101040.03;;;16.99;100.00
19811;BME280;10065;49.632;8.346;2022-10-17T01:00:16;101037.34;;;16.99;100.00
19811;BME280;10065;49.632;8.346;2022-10-17T01:02:44;101040.88;;;16.99;100.00
19811;BME280;10065;49.632;8.346;2022-10-17T01:05:13;101041.34;;;17.03;100.00
19811;BME280;10065;49.632;8.346;2022-10-17T01:07:43;101036.34;;;17.00;100.00
19811;BME280;10065;49.632;8.346;2022-10-17T01:10:12;101044.03;;;17.03;100.00
19811;BME280;10065;49.632;8.346;2022-10-17T01:12:50;101040.34;;;17.04;100.00
19811;BME280;10065;49.632;8.346;2022-10-17T01:15:29;101041.34;;;17.03;100.00
19811;BME280;10065;49.632;8.346;2022-10-17T01:18:07;101038.50;;;17.04;100.00
19811;BME280;10065;49.632;8.346;2022-10-17T01:26:56;101042.75;;;16.90;100.00
19811;BME280;10065;49.632;8.346;2022-10-17T01:29:40;101038.59;;;16.88;100.00
19811;BME280;10065;49.632;8.346;2022-10-17T01:32:19;101040.44;;;16.87;100.00
19811;BME280;10065;49.632;8.346;2022-10-17T01:34:54;101043.13;;;16.87;100.00
19811;BME280;10065;49.632;8.346;2022-10-17T01:37:27;101033.75;;;16.83;100.00
19811;BME280;10065;49.632;8.346;2022-10-17T01:40:01;101041.81;;;16.75;100.00
19811;BME280;10065;49.632;8.346;2022-10-17T01:42:32;101037.47;;;16.74;100.00
19811;BME280;10065;49.632;8.346;2022-10-17T01:45:08;101039.16;;;16.75;100.00
19811;BME280;10065;49.632;8.346;2022-10-17T01:47:41;101029.63;;;16.73;100.00
19811;BME280;10065;49.632;8.346;2022-10-17T01:50:13;101038.19;;;16.68;100.00
19811;BME280;10065;49.632;8.346;2022-10-17T01:52:44;101030.16;;;16.60;100.00
19811;BME280;10065;49.632;8.346;2022-10-17T01:55:18;101032.16;;;16.58;100.00
19811;BME280;10065;49.632;8.346;2022-10-17T01:57:49;101035.69;;;16.59;100.00
19811;BME280;10065;49.632;8.346;2022-10-17T02:00:20;101037.03;;;16.54;100.00
19811;BME280;10065;49.632;8.346;2022-10-17T02:02:52;101035.34;;;16.53;100.00
19811;BME280;10065;49.632;8.346;2022-10-17T02:05:25;101037.56;;;16.50;100.00
19811;BME280;10065;49.632;8.346;2022-10-17T02:07:54;101033.53;;;16.46;100.00
19811;BME280;10065;49.632;8.346;2022-10-17T02:10:30;101035.22;;;16.47;100.00
19811;BME280;10065;49.632;8.346;2022-10-17T02:13:07;101031.53;;;16.48;100.00
19811;BME280;10065;49.632;8.346;2022-10-17T02:15:56;101031.53;;;16.48;100.00
19811;BME280;10065;49.632;8.346;2022-10-17T02:18:40;101030.22;;;16.44;100.00
19811;BME280;10065;49.632;8.346;2022-10-17T02:21:15;101036.56;;;16.43;100.00
19811;BME280;10065;49.632;8.346;2022-10-17T02:23:51;101028.88;;;16.40;100.00
19811;BME280;10065;49.632;8.346;2022-10-17T02:26:24;101029.06;;;16.38;100.00
19811;BME280;10065;49.632;8.346;2022-10-17T02:29:01;101031.88;;;16.37;100.00
19811;BME280;10065;49.632;8.346;2022-10-17T02:31:35;101025.91;;;16.35;100.00
19811;BME280;10065;49.632;8.346;2022-10-17T02:34:08;101038.63;;;16.33;100.00
19811;BME280;10065;49.632;8.346;2022-10-17T02:36:43;101038.63;;;16.33;100.00
19811;BME280;10065;49.632;8.346;2022-10-17T02:39:12;101029.91;;;16.31;100.00
19811;BME280;10065;49.632;8.346;2022-10-17T02:41:42;101043.28;;;16.31;100.00
19811;BME280;10065;49.632;8.346;2022-10-17T02:44:11;101037.94;;;16.31;100.00
19811;BME280;10065;49.632;8.346;2022-10-17T02:46:40;101039.31;;;16.27;100.00
19811;BME280;10065;49.632;8.346;2022-10-17T02:49:15;101038.63;;;16.33;100.00
19811;BME280;10065;49.632;8.346;2022-10-17T02:51:51;101044.13;;;16.31;100.00
19811;BME280;10065;49.632;8.346;2022-10-17T02:54:29;101043.81;;;16.26;100.00
19811;BME280;10065;49.632;8.346;2022-10-17T02:57:00;101052.50;;;16.28;100.00
19811;BME280;10065;49.632;8.346;2022-10-17T02:59:30;101053.66;;;16.34;100.00
19811;BME280;10065;49.632;8.346;2022-10-17T03:02:05;101051.97;;;16.41;100.00
19811;BME280;10065;49.632;8.346;2022-10-17T03:04:34;101050.59;;;16.53;100.00
19811;BME280;10065;49.632;8.346;2022-10-17T03:07:02;101059.47;;;16.62;100.00
19811;BME280;10065;49.632;8.346;2022-10-17T03:09:30;101056.09;;;16.68;100.00
19811;BME280;10065;49.632;8.346;2022-10-17T03:11:57;101053.91;;;16.63;100.00
19811;BME280;10065;49.632;8.346;2022-10-17T03:14:25;101055.75;;;16.63;100.00
19811;BME280;10065;49.632;8.346;2022-10-17T03:16:52;101058.44;;;16.63;100.00
19811;BME280;10065;49.632;8.346;2022-10-17T03:19:20;101063.47;;;16.66;100.00
19811;BME280;10065;49.632;8.346;2022-10-17T03:21:49;101063.97;;;16.69;100.00
19811;BME280;10065;49.632;8.346;2022-10-17T03:24:17;101070.16;;;16.70;100.00
19811;BME280;10065;49.632;8.346;2022-10-17T03:26:44;101064.97;;;16.68;100.00
19811;BME280;10065;49.632;8.346;2022-10-17T03:29:17;101073.66;;;16.70;100.00
19811;BME280;10065;49.632;8.346;2022-10-17T03:31:44;101068.31;;;16.70;100.00
19811;BME280;10065;49.632;8.346;2022-10-17T03:34:12;101067.81;;;16.67;100.00
19811;BME280;10065;49.632;8.346;2022-10-17T03:36:42;101068.66;;;16.67;100.00
19811;BME280;10065;49.632;8.346;2022-10-17T03:39:10;101074.16;;;16.66;100.00
19811;BME280;10065;49.632;8.346;2022-10-17T03:41:38;101074.34;;;16.64;100.00
19811;BME280;10065;49.632;8.346;2022-10-17T03:44:06;101073.34;;;16.65;100.00
19811;BME280;10065;49.632;8.346;2022-10-17T03:46:34;101085.72;;;16.66;100.00
19811;BME280;10065;49.632;8.346;2022-10-17T03:49:01;101083.03;;;16.66;100.00
19811;BME280;10065;49.632;8.346;2022-10-17T03:51:31;101081.03;;;16.68;100.00
19811;BME280;10065;49.632;8.346;2022-10-17T03:54:00;101089.22;;;16.67;100.00
19811;BME280;10065;49.632;8.346;2022-10-17T03:56:29;101089.22;;;16.67;100.00
19811;BME280;10065;49.632;8.346;2022-10-17T03:58:56;101091.75;;;16.68;100.00
19811;BME280;10065;49.632;8.346;2022-10-17T04:01:24;101100.78;;;16.67;100.00
19811;BME280;10065;49.632;8.346;2022-10-17T04:03:53;101101.09;;;16.64;100.00
19811;BME280;10065;49.632;8.346;2022-10-17T04:06:21;101100.28;;;16.64;100.00
19811;BME280;10065;49.632;8.346;2022-10-17T04:08:49;101109.66;;;16.60;100.00
19811;BME280;10065;49.632;8.346;2022-10-17T04:11:19;101109.97;;;16.56;100.00
19811;BME280;10065;49.632;8.346;2022-10-17T04:13:51;101098.94;;;16.60;100.00
19811;BME280;10065;49.632;8.346;2022-10-17T04:16:20;101100.09;;;16.57;100.00
19811;BME280;10065;49.632;8.346;2022-10-17T04:18:51;101109.97;;;16.56;100.00
19811;BME280;10065;49.632;8.346;2022-10-17T04:21:19;101107.47;;;16.55;100.00
19811;BME280;10065;49.632;8.346;2022-10-17T04:23:47;101110.50;;;16.52;100.00
19811;BME280;10065;49.632;8.346;2022-10-17T04:26:14;101110.31;;;16.53;100.00
19811;BME280;10065;49.632;8.346;2022-10-17T04:28:42;101109.50;;;16.53;100.00
19811;BME280;10065;49.632;8.346;2022-10-17T04:31:13;101112.50;;;16.50;100.00
19811;BME280;10065;49.632;8.346;2022-10-17T04:33:41;101103.13;;;16.46;100.00
19811;BME280;10065;49.632;8.346;2022-10-17T04:36:11;101106.66;;;16.46;100.00
19811;BME280;10065;49.632;8.346;2022-10-17T04:38:40;101110.69;;;16.42;100.00
19811;BME280;10065;49.632;8.346;2022-10-17T04:41:11;101105.84;;;16.38;100.00
19811;BME280;10065;49.632;8.346;2022-10-17T04:43:39;101102.50;;;16.28;100.00
19811;BME280;10065;49.632;8.346;2022-10-17T04:46:14;101107.22;;;16.26;100.00
19811;BME280;10065;49.632;8.346;2022-10-17T04:48:41;101097.84;;;16.22;100.00
19811;BME280;10065;49.632;8.346;2022-10-17T04:51:10;101098.50;;;16.24;100.00
19811;BME280;10065;49.632;8.346;2022-10-17T04:53:39;101094.47;;;16.28;100.00
19811;BME280;10065;49.632;8.346;2022-10-17T04:56:08;101101.19;;;16.24;100.00
19811;BME280;10065;49.632;8.346;2022-10-17T04:58:36;101098.84;;;16.21;100.00
19811;BME280;10065;49.632;8.346;2022-10-17T05:01:05;101104.03;;;16.22;100.00
19811;BME280;10065;49.632;8.346;2022-10-17T05:03:34;101102.03;;;16.16;100.00
19811;BME280;10065;49.632;8.346;2022-10-17T05:06:04;101117.72;;;16.19;100.00
19811;BME280;10065;49.632;8.346;2022-10-17T05:08:32;101113.91;;;16.13;100.00
19811;BME280;10065;49.632;8.346;2022-10-17T05:10:59;101127.28;;;16.05;100.00
19811;BME280;10065;49.632;8.346;2022-10-17T05:13:27;101125.78;;;16.03;100.00
19811;BME280;10065;49.632;8.346;2022-10-17T05:15:57;101128.28;;;15.96;100.00
19811;BME280;10065;49.632;8.346;2022-10-17T05:18:25;101133.31;;;15.91;100.00
19811;BME280;10065;49.632;8.346;2022-10-17T05:20:54;101132.63;;;15.89;100.00
19811;BME280;10065;49.632;8.346;2022-10-17T05:23:22;101123.94;;;15.87;100.00
19811;BME280;10065;49.632;8.346;2022-10-17T05:25:53;101120.59;;;15.85;100.00
19811;BME280;10065;49.632;8.346;2022-10-17T05:28:21;101131.78;;;15.80;100.00
19811;BME280;10065;49.632;8.346;2022-10-17T05:30:49;101130.59;;;15.75;100.00
19811;BME280;10065;49.632;8.346;2022-10-17T05:33:17;101130.78;;;15.73;100.00
19811;BME280;10065;49.632;8.346;2022-10-17T05:35:45;101134.13;;;15.75;100.00
19811;BME280;10065;49.632;8.346;2022-10-17T05:38:13;101136.31;;;15.72;100.00
19811;BME280;10065;49.632;8.346;2022-10-17T05:40:41;101139.66;;;15.74;100.00
19811;BME280;10065;49.632;8.346;2022-10-17T05:43:09;101134.63;;;15.71;100.00
19811;BME280;10065;49.632;8.346;2022-10-17T05:45:36;101136.63;;;15.69;100.00
19811;BME280;10065;49.632;8.346;2022-10-17T05:48:04;101137.13;;;15.72;100.00
19811;BME280;10065;49.632;8.346;2022-10-17T05:50:32;101147.31;;;15.69;100.00
19811;BME280;10065;49.632;8.346;2022-10-17T05:53:00;101142.66;;;15.71;100.00
19811;BME280;10065;49.632;8.346;2022-10-17T05:55:29;101145.31;;;15.71;100.00
19811;BME280;10065;49.632;8.346;2022-10-17T05:57:58;101142.31;;;15.74;100.00
19811;BME280;10065;49.632;8.346;2022-10-17T06:00:26;101136.16;;;15.73;100.00
19811;BME280;10065;49.632;8.346;2022-10-17T06:02:53;101146.00;;;15.73;100.00
19811;BME280;10065;49.632;8.346;2022-10-17T06:05:21;101141.81;;;15.70;100.00
19811;BME280;10065;49.632;8.346;2022-10-17T06:07:49;101147.00;;;15.72;100.00
19811;BME280;10065;49.632;8.346;2022-10-17T06:10:18;101144.16;;;15.73;100.00
19811;BME280;10065;49.632;8.346;2022-10-17T06:12:47;101149.66;;;15.72;100.00
19811;BME280;10065;49.632;8.346;2022-10-17T06:15:15;101155.34;;;15.77;100.00
19811;BME280;10065;49.632;8.346;2022-10-17T06:17:42;101160.69;;;15.85;100.00
19811;BME280;10065;49.632;8.346;2022-10-17T06:20:10;101160.06;;;15.91;100.00
19811;BME280;10065;49.632;8.346;2022-10-17T06:22:37;101166.41;;;15.90;100.00
19811;BME280;10065;49.632;8.346;2022-10-17T06:25:05;101167.72;;;15.94;100.00
19811;BME280;10065;49.632;8.346;2022-10-17T06:27:33;101165.06;;;15.94;100.00
19811;BME280;10065;49.632;8.346;2022-10-17T06:30:03;101167.41;;;15.97;100.00
19811;BME280;10065;49.632;8.346;2022-10-17T06:32:31;101178.44;;;16.02;100.00
19811;BME280;10065;49.632;8.346;2022-10-17T06:34:58;101186.31;;;16.12;100.00
19811;BME280;10065;49.632;8.346;2022-10-17T06:37:29;101182.78;;;16.19;100.00
19811;BME280;10065;49.632;8.346;2022-10-17T06:40:02;101190.16;;;16.26;100.00
19811;BME280;10065;49.632;8.346;2022-10-17T06:42:30;101193.16;;;16.31;100.00
19811;BME280;10065;49.632;8.346;2022-10-17T06:44:59;101192.00;;;16.33;100.00
19811;BME280;10065;49.632;8.346;2022-10-17T06:47:27;101202.19;;;16.38;100.00
19811;BME280;10065;49.632;8.346;2022-10-17T06:49:56;101207.22;;;16.41;99.46
19811;BME280;10065;49.632;8.346;2022-10-17T06:52:23;101210.91;;;16.40;99.46
19811;BME280;10065;49.632;8.346;2022-10-17T06:54:53;101216.56;;;16.45;99.40
19811;BME280;10065;49.632;8.346;2022-10-17T06:57:20;101218.59;;;16.51;98.86
19811;BME280;10065;49.632;8.346;2022-10-17T06:59:48;101216.59;;;16.53;98.67
19811;BME280;10065;49.632;8.346;2022-10-17T07:02:15;101217.91;;;16.57;98.29
19811;BME280;10065;49.632;8.346;2022-10-17T07:04:45;101220.13;;;16.62;97.92
19811;BME280;10065;49.632;8.346;2022-10-17T07:07:13;101207.59;;;16.62;97.42
19811;BME280;10065;49.632;8.346;2022-10-17T07:09:41;101216.41;;;16.63;97.86
19811;BME280;10065;49.632;8.346;2022-10-17T07:12:08;101203.53;;;16.66;97.34
19811;BME280;10065;49.632;8.346;2022-10-17T07:14:38;101208.22;;;16.64;97.35
19811;BME280;10065;49.632;8.346;2022-10-17T07:17:06;101221.59;;;16.64;97.49
19811;BME280;10065;49.632;8.346;2022-10-17T07:19:33;101220.25;;;16.60;97.98
19811;BME280;10065;49.632;8.346;2022-10-17T07:22:02;101217.06;;;16.56;98.00
19811;BME280;10065;49.632;8.346;2022-10-17T07:24:30;101215.56;;;16.54;98.72
19811;BME280;10065;49.632;8.346;2022-10-17T07:26:57;101220.28;;;16.52;99.09
19811;BME280;10065;49.632;8.346;2022-10-17T07:29:25;101228.09;;;16.53;99.04
19811;BME280;10065;49.632;8.346;2022-10-17T07:31:53;101232.31;;;16.56;99.28
19811;BME280;10065;49.632;8.346;2022-10-17T07:34:21;101232.31;;;16.64;98.46
19811;BME280;10065;49.632;8.346;2022-10-17T07:36:52;101231.16;;;16.67;98.42
19811;BME280;10065;49.632;8.346;2022-10-17T07:39:22;101243.72;;;16.66;98.98
19811;BME280;10065;49.632;8.346;2022-10-17T07:41:49;101242.19;;;16.72;98.30
19811;BME280;10065;49.632;8.346;2022-10-17T07:44:17;101245.53;;;16.74;98.79
19811;BME280;10065;49.632;8.346;2022-10-17T07:46:44;101239.69;;;16.78;98.67
19811;BME280;10065;49.632;8.346;2022-10-17T07:49:12;101242.34;;;16.86;97.44
19811;BME280;10065;49.632;8.346;2022-10-17T07:51:40;101240.66;;;16.93;96.56
19811;BME280;10065;49.632;8.346;2022-10-17T07:54:08;101249.00;;;16.99;96.27
19811;BME280;10065;49.632;8.346;2022-10-17T07:56:37;101251.31;;;17.10;95.55
19811;BME280;10065;49.632;8.346;2022-10-17T07:59:05;101251.31;;;17.18;94.92
19811;BME280;10065;49.632;8.346;2022-10-17T08:01:35;101249.81;;;17.23;94.41
19811;BME280;10065;49.632;8.346;2022-10-17T08:04:03;101247.25;;;17.30;93.86
19811;BME280;10065;49.632;8.346;2022-10-17T08:06:30;101238.34;;;17.38;93.01
19811;BME280;10065;49.632;8.346;2022-10-17T08:08:58;101234.78;;;17.45;92.49
19811;BME280;10065;49.632;8.346;2022-10-17T08:11:26;101237.09;;;17.56;92.16
19811;BME280;10065;49.632;8.346;2022-10-17T08:13:55;101246.81;;;17.65;91.58
19811;BME280;10065;49.632;8.346;2022-10-17T08:16:23;101241.56;;;17.72;90.69
19811;BME280;10065;49.632;8.346;2022-10-17T08:18:51;101245.38;;;17.78;90.80
19811;BME280;10065;49.632;8.346;2022-10-17T08:21:19;101246.84;;;17.88;89.74
19811;BME280;10065;49.632;8.346;2022-10-17T08:23:46;101254.00;;;17.96;89.50
19811;BME280;10065;49.632;8.346;2022-10-17T08:26:14;101240.19;;;18.07;89.55
19811;BME280;10065;49.632;8.346;2022-10-17T08:28:42;101255.56;;;18.13;89.24
19811;BME280;10065;49.632;8.346;2022-10-17T08:31:13;101239.75;;;18.18;89.86
19811;BME280;10065;49.632;8.346;2022-10-17T08:33:43;101242.16;;;18.36;86.93
19811;BME280;10065;49.632;8.346;2022-10-17T08:36:12;101249.97;;;18.46;85.76
19811;BME280;10065;49.632;8.346;2022-10-17T08:38:40;101246.84;;;18.57;85.59
19811;BME280;10065;49.632;8.346;2022-10-17T08:41:25;101251.72;;;18.76;83.40
19811;BME280;10065;49.632;8.346;2022-10-17T08:44:04;101249.56;;;19.24;81.44
19811;BME280;10065;49.632;8.346;2022-10-17T08:46:38;101250.25;;;19.76;78.61
19811;BME280;10065;49.632;8.346;2022-10-17T08:49:12;101258.38;;;20.61;73.72
19811;BME280;10065;49.632;8.346;2022-10-17T08:51:50;101249.00;;;21.13;70.92
19811;BME280;10065;49.632;8.346;2022-10-17T08:54:23;101241.38;;;21.58;68.20
19811;BME280;10065;49.632;8.346;2022-10-17T08:56:54;101247.88;;;21.70;68.27
19811;BME280;10065;49.632;8.346;2022-10-17T08:59:25;101234.69;;;22.08;66.31
19811;BME280;10065;49.632;8.346;2022-10-17T09:01:59;101244.13;;;22.25;65.35
19811;BME280;10065;49.632;8.346;2022-10-17T09:04:44;101242.88;;;22.47;65.06
19811;BME280;10065;49.632;8.346;2022-10-17T09:07:19;101248.47;;;23.12;63.15
19811;BME280;10065;49.632;8.346;2022-10-17T09:09:55;101247.53;;;23.44;62.30
19811;BME280;10065;49.632;8.346;2022-10-17T09:12:35;101242.50;;;23.99;59.88
19811;BME280;10065;49.632;8.346;2022-10-17T09:15:30;101238.22;;;24.16;58.58
19811;BME280;10065;49.632;8.346;2022-10-17T09:18:08;101249.53;;;23.69;60.06
19811;BME280;10065;49.632;8.346;2022-10-17T09:20:42;101260.31;;;23.11;62.40
19811;BME280;10065;49.632;8.346;2022-10-17T09:23:15;101259.09;;;22.67;64.08
19811;BME280;10065;49.632;8.346;2022-10-17T09:25:46;101269.91;;;22.67;64.57
19811;BME280;10065;49.632;8.346;2022-10-17T09:28:18;101253.66;;;22.54;64.86
19811;BME280;10065;49.632;8.346;2022-10-17T09:30:52;101260.53;;;22.63;65.42
19811;BME280;10065;49.632;8.346;2022-10-17T09:33:25;101256.19;;;23.02;64.58
19811;BME280;10065;49.632;8.346;2022-10-17T09:36:11;101258.38;;;23.31;63.37
19811;BME280;10065;49.632;8.346;2022-10-17T09:38:42;101252.09;;;23.50;62.85
19811;BME280;10065;49.632;8.346;2022-10-17T09:41:16;101256.44;;;23.65;61.46
19811;BME280;10065;49.632;8.346;2022-10-17T09:44:13;101253.25;;;23.10;63.47
19811;BME280;10065;49.632;8.346;2022-10-17T09:46:42;101251.41;;;22.58;66.19
19811;BME280;10065;49.632;8.346;2022-10-17T09:49:18;101266.13;;;22.22;68.09
19811;BME280;10065;49.632;8.346;2022-10-17T09:51:48;101263.38;;;22.02;69.01
19811;BME280;10065;49.632;8.346;2022-10-17T09:54:19;101267.00;;;21.82;70.14
19811;BME280;10065;49.632;8.346;2022-10-17T09:57:00;101269.22;;;21.65;71.46
19811;BME280;10065;49.632;8.346;2022-10-17T09:59:32;101279.78;;;21.53;72.74
19811;BME280;10065;49.632;8.346;2022-10-17T10:02:24;101274.13;;;21.48;72.99
19811;BME280;10065;49.632;8.346;2022-10-17T10:04:59;101277.63;;;21.42;73.72
19811;BME280;10065;49.632;8.346;2022-10-17T10:07:32;101282.03;;;21.50;72.96
19811;BME280;10065;49.632;8.346;2022-10-17T10:10:02;101279.34;;;21.56;72.67
19811;BME280;10065;49.632;8.346;2022-10-17T10:12:33;101271.81;;;21.86;70.53
19811;BME280;10065;49.632;8.346;2022-10-17T10:15:32;101268.34;;;21.99;70.93
19811;BME280;10065;49.632;8.346;2022-10-17T10:18:00;101272.78;;;22.33;68.75
19811;BME280;10065;49.632;8.346;2022-10-17T10:20:33;101276.09;;;22.28;68.60
19811;BME280;10065;49.632;8.346;2022-10-17T10:23:13;101277.50;;;21.98;70.29
19811;BME280;10065;49.632;8.346;2022-10-17T10:25:54;101272.94;;;21.98;70.25
19811;BME280;10065;49.632;8.346;2022-10-17T10:28:25;101276.38;;;21.92;70.56
19811;BME280;10065;49.632;8.346;2022-10-17T10:30:55;101283.63;;;21.78;71.74
19811;BME280;10065;49.632;8.346;2022-10-17T10:33:25;101279.25;;;21.71;72.83
19811;BME280;10065;49.632;8.346;2022-10-17T10:35:57;101285.25;;;21.73;73.33
19811;BME280;10065;49.632;8.346;2022-10-17T10:38:27;101278.44;;;21.77;73.62
19811;BME280;10065;49.632;8.346;2022-10-17T10:40:56;101289.41;;;21.75;74.45
19811;BME280;10065;49.632;8.346;2022-10-17T10:43:32;101277.66;;;21.96;73.53
19811;BME280;10065;49.632;8.346;2022-10-17T10:46:02;101270.22;;;21.98;73.45
19811;BME280;10065;49.632;8.346;2022-10-17T10:48:34;101274.19;;;22.02;73.60
19811;BME280;10065;49.632;8.346;2022-10-17T10:51:08;101281.44;;;22.08;73.68
19811;BME280;10065;49.632;8.346;2022-10-17T10:53:43;101283.97;;;22.17;73.70
19811;BME280;10065;49.632;8.346;2022-10-17T10:56:16;101283.63;;;22.59;71.54
19811;BME280;10065;49.632;8.346;2022-10-17T10:58:50;101280.00;;;23.44;67.65
19811;BME280;10065;49.632;8.346;2022-10-17T11:01:26;101283.63;;;23.89;65.38
19811;BME280;10065;49.632;8.346;2022-10-17T11:04:04;101279.97;;;24.02;64.55
19811;BME280;10065;49.632;8.346;2022-10-17T11:06:38;101278.31;;;24.08;64.60
19811;BME280;10065;49.632;8.346;2022-10-17T11:09:16;101285.00;;;24.68;61.90
19811;BME280;10065;49.632;8.346;2022-10-17T11:11:48;101278.53;;;24.69;62.08
19811;BME280;10065;49.632;8.346;2022-10-17T11:14:23;101274.72;;;25.20;61.48
19811;BME280;10065;49.632;8.346;2022-10-17T11:17:02;101282.16;;;25.49;60.17
19811;BME280;10065;49.632;8.346;2022-10-17T11:19:35;101284.34;;;25.77;59.46
19811;BME280;10065;49.632;8.346;2022-10-17T11:22:11;101287.34;;;26.47;56.83
19811;BME280;10065;49.632;8.346;2022-10-17T11:24:45;101283.66;;;27.06;55.37
19811;BME280;10065;49.632;8.346;2022-10-17T11:27:15;101282.16;;;27.50;54.01
19811;BME280;10065;49.632;8.346;2022-10-17T11:29:43;101279.47;;;27.90;51.37
19811;BME280;10065;49.632;8.346;2022-10-17T11:32:14;101280.53;;;27.61;51.86
19811;BME280;10065;49.632;8.346;2022-10-17T11:34:46;101279.53;;;27.67;52.60
19811;BME280;10065;49.632;8.346;2022-10-17T11:37:18;101275.06;;;27.49;52.81
19811;BME280;10065;49.632;8.346;2022-10-17T11:39:50;101277.44;;;27.46;53.34
19811;BME280;10065;49.632;8.346;2022-10-17T11:42:21;101276.63;;;27.33;52.99
19811;BME280;10065;49.632;8.346;2022-10-17T11:44:55;101281.63;;;27.25;53.73
19811;BME280;10065;49.632;8.346;2022-10-17T11:47:31;101278.91;;;27.25;53.24
19811;BME280;10065;49.632;8.346;2022-10-17T11:50:04;101268.59;;;27.04;53.99
19811;BME280;10065;49.632;8.346;2022-10-17T11:52:57;101283.47;;;26.78;55.08
19811;BME280;10065;49.632;8.346;2022-10-17T11:55:28;101288.31;;;26.76;54.90
19811;BME280;10065;49.632;8.346;2022-10-17T11:58:18;101286.53;;;26.70;54.64
19811;BME280;10065;49.632;8.346;2022-10-17T12:00:59;101289.72;;;26.67;55.01
19811;BME280;10065;49.632;8.346;2022-10-17T12:03:38;101282.41;;;26.79;54.38
19811;BME280;10065;49.632;8.346;2022-10-17T12:06:14;101278.91;;;27.13;53.74
19811;BME280;10065;49.632;8.346;2022-10-17T12:08:51;101282.22;;;27.15;53.75
19811;BME280;10065;49.632;8.346;2022-10-17T12:11:32;101274.00;;;27.39;54.30
19811;BME280;10065;49.632;8.346;2022-10-17T12:14:01;101280.19;;;27.34;52.68
19811;BME280;10065;49.632;8.346;2022-10-17T12:16:46;101282.81;;;26.94;53.82
19811;BME280;10065;49.632;8.346;2022-10-17T12:19:22;101272.53;;;26.43;55.48
19811;BME280;10065;49.632;8.346;2022-10-17T12:21:57;101274.06;;;26.09;56.84
19811;BME280;10065;49.632;8.346;2022-10-17T12:24:34;101267.56;;;26.40;55.83
19811;BME280;10065;49.632;8.346;2022-10-17T12:27:32;101267.47;;;26.46;54.49
19811;BME280;10065;49.632;8.346;2022-10-17T12:30:05;101263.94;;;26.57;53.77
19811;BME280;10065;49.632;8.346;2022-10-17T12:33:02;101279.31;;;26.52;53.78
19811;BME280;10065;49.632;8.346;2022-10-17T12:35:34;101273.91;;;26.64;54.54
19811;BME280;10065;49.632;8.346;2022-10-17T12:38:25;101275.19;;;26.84;54.61
19811;BME280;10065;49.632;8.346;2022-10-17T12:41:03;101274.53;;;27.12;53.22
19811;BME280;10065;49.632;8.346;2022-10-17T12:43:49;101272.41;;;27.14;52.16
19811;BME280;10065;49.632;8.346;2022-10-17T12:46:54;101268.97;;;27.07;53.13
19811;BME280;10065;49.632;8.346;2022-10-17T12:49:36;101263.59;;;27.35;52.83
19811;BME280;10065;49.632;8.346;2022-10-17T12:55:10;101248.06;;;27.48;51.56
19811;BME280;10065;49.632;8.346;2022-10-17T12:57:47;101243.59;;;27.42;51.85
19811;BME280;10065;49.632;8.346;2022-10-17T13:00:22;101243.81;;;27.40;51.28
19811;BME280;10065;49.632;8.346;2022-10-17T13:02:54;101257.22;;;27.30;51.91
19811;BME280;10065;49.632;8.346;2022-10-17T13:05:26;101262.31;;;27.26;51.11
19811;BME280;10065;49.632;8.346;2022-10-17T13:07:56;101258.19;;;27.12;50.33
19811;BME280;10065;49.632;8.346;2022-10-17T13:10:27;101254.53;;;26.95;50.36
19811;BME280;10065;49.632;8.346;2022-10-17T13:13:04;101258.28;;;26.71;51.27
19811;BME280;10065;49.632;8.346;2022-10-17T13:15:34;101262.75;;;26.53;51.67
19811;BME280;10065;49.632;8.346;2022-10-17T13:18:03;101268.72;;;26.32;53.25